Time;durP1;ratioP1;P1;durP2;ratioP2;P2;SDS_P1;SDS_P2;PMS_P1;PMS_P2;Temp;Humidity;BMP_temperature;BMP_pressure;BME280_temperature;BME280_humidity;BME280_pressure;Samples;Min_cycle;Max_cycle;Signal;HPM_P1;HPM_P2
2021/12/14 00:01:24;;;;;;;10.82;4.35;;;;;;;7.02;89.44;101843.22;4821415;29;20087;-70
2021/12/14 00:04:35;;;;;;;10.65;4.43;;;;;;;7.03;89.28;101841.47;4825987;29;20122;-70
2021/12/14 00:07:40;;;;;;;12.23;5.53;;;;;;;7.05;89.42;101840.56;4826143;29;20045;-70
2021/12/14 00:11:14;;;;;;;12.75;6.13;;;;;;;7.00;89.43;101844.97;4825788;29;20057;-70
2021/12/14 00:17:48;;;;;;;12.65;5.32;;;;;;;6.94;89.86;101845.06;4825838;29;20099;-70
2021/12/14 00:20:57;;;;;;;13.25;4.60;;;;;;;6.99;89.42;101853.66;4822834;29;20099;-70
2021/12/14 00:24:06;;;;;;;11.10;5.75;;;;;;;6.93;89.35;101846.81;4825612;29;20053;-70
2021/12/14 00:27:11;;;;;;;14.00;5.22;;;;;;;6.94;89.60;101851.13;4825594;29;20100;-70
2021/12/14 00:30:16;;;;;;;15.60;5.07;;;;;;;6.82;90.06;101853.06;4814320;29;20049;-69
2021/12/14 00:33:23;;;;;;;9.35;5.35;;;;;;;6.91;89.97;101855.50;4825550;29;20423;-70
2021/12/14 00:36:26;;;;;;;15.15;5.70;;;;;;;6.91;89.66;101852.91;4814055;29;20053;-69
2021/12/14 00:39:29;;;;;;;8.35;5.13;;;;;;;6.97;89.58;101856.25;4825387;29;20162;-70
2021/12/14 00:42:33;;;;;;;11.40;5.38;;;;;;;6.93;89.63;101865.00;4814267;29;20114;-70
2021/12/14 00:45:37;;;;;;;;;;;;;;;6.79;90.59;101866.94;4813842;29;20424;-70
2021/12/14 00:48:42;;;;;;;14.07;5.13;;;;;;;6.71;90.30;101872.28;4795726;29;19924;-70
2021/12/14 00:51:45;;;;;;;9.27;4.03;;;;;;;6.85;89.93;101860.81;4807396;29;20509;-70
2021/12/14 00:54:48;;;;;;;8.05;3.85;;;;;;;6.89;89.95;101857.25;4807110;29;20061;-70
2021/12/14 00:57:52;;;;;;;14.25;4.55;;;;;;;6.94;89.62;101863.25;4795767;29;20111;-70
2021/12/14 01:01:03;;;;;;;11.98;5.00;;;;;;;6.81;89.95;101874.75;4795377;29;20065;-70
2021/12/14 01:04:13;;;;;;;10.73;3.78;;;;;;;6.69;90.53;101866.22;4795568;29;20106;-70
2021/12/14 01:07:21;;;;;;;7.47;3.78;;;;;;;6.85;89.96;101871.19;4795929;29;20057;-70
2021/12/14 01:10:37;;;;;;;6.85;3.88;;;;;;;6.95;89.37;101864.97;4806783;29;20038;-70
2021/12/14 01:13:51;;;;;;;10.73;4.25;;;;;;;7.00;89.05;101865.78;4816759;29;20161;-69
2021/12/14 01:17:26;;;;;;;13.23;4.53;;;;;;;6.85;89.59;101853.84;4802949;29;20482;-70
2021/12/14 01:20:38;;;;;;;10.50;4.07;;;;;;;6.74;90.32;101863.56;4824603;29;20085;-70
2021/12/14 01:23:43;;;;;;;7.22;3.58;;;;;;;6.66;90.42;101853.28;4824858;29;20056;-70
2021/12/14 01:26:47;;;;;;;13.02;3.75;;;;;;;6.81;90.08;101865.19;4824432;29;20425;-70
2021/12/14 01:29:55;;;;;;;11.40;4.15;;;;;;;6.88;90.14;101855.56;4813500;29;20112;-70
2021/12/14 01:33:02;;;;;;;13.60;3.83;;;;;;;6.95;89.48;101865.81;4813169;29;20122;-70
2021/12/14 01:36:21;;;;;;;11.82;3.90;;;;;;;7.01;89.20;101864.88;4813202;29;20057;-70
2021/12/14 01:42:41;;;;;;;10.18;4.05;;;;;;;6.88;89.67;101876.34;4812901;29;20049;-70
2021/12/14 01:45:46;;;;;;;10.80;4.03;;;;;;;6.83;89.72;101870.34;4811809;29;20512;-70
2021/12/14 01:48:51;;;;;;;6.97;3.95;;;;;;;6.69;90.22;101871.44;4794820;29;20046;-70
2021/12/14 01:52:33;;;;;;;11.40;3.88;;;;;;;6.69;90.20;101874.03;4752140;29;20108;-70
2021/12/14 01:55:38;;;;;;;15.38;3.80;;;;;;;6.78;90.11;101861.78;4794737;29;20190;-69
2021/12/14 01:58:48;;;;;;;13.75;3.17;;;;;;;6.84;89.87;101864.28;4794726;29;20115;-70
2021/12/14 02:05:34;;;;;;;16.92;5.13;;;;;;;6.80;89.82;101857.44;4733863;30;20692;-71
2021/12/14 02:08:38;;;;;;;13.38;3.60;;;;;;;6.65;90.14;101856.75;4769916;30;20054;-70
2021/12/14 02:11:49;;;;;;;7.47;3.00;;;;;;;6.73;90.24;101846.25;4769068;30;20082;-70
2021/12/14 02:15:00;;;;;;;9.90;3.35;;;;;;;6.81;90.10;101846.13;4769079;30;20421;-70
2021/12/14 02:18:09;;;;;;;12.93;4.90;;;;;;;6.73;90.60;101843.63;4768874;30;20062;-70
2021/12/14 02:21:14;;;;;;;10.55;3.72;;;;;;;6.75;90.23;101840.13;4769665;30;20054;-70
2021/12/14 02:24:19;;;;;;;8.13;4.22;;;;;;;6.84;90.00;101844.34;4769669;30;20062;-70
2021/12/14 02:27:22;;;;;;;19.05;7.45;;;;;;;6.58;90.84;101852.53;4768875;30;20050;-70
2021/12/14 02:30:30;;;;;;;11.05;5.57;;;;;;;6.73;90.85;101841.94;4768820;30;20104;-70
2021/12/14 02:33:36;;;;;;;12.90;5.80;;;;;;;6.77;90.32;101831.47;4778448;30;20189;-70
2021/12/14 02:36:44;;;;;;;8.32;4.50;;;;;;;6.72;90.81;101836.72;4787665;30;20414;-70
2021/12/14 02:40:01;;;;;;;13.90;4.80;;;;;;;6.69;90.62;101835.03;4786271;30;20066;-70
2021/12/14 02:43:06;;;;;;;11.95;4.35;;;;;;;6.74;90.15;101833.22;4786564;30;20053;-70
2021/12/14 02:46:20;;;;;;;7.97;3.63;;;;;;;6.85;90.10;101822.66;4786520;30;20050;-70
2021/12/14 02:49:27;;;;;;;13.68;4.97;;;;;;;6.90;89.87;101820.00;4786332;29;20191;-70
2021/12/14 02:52:37;;;;;;;12.10;4.50;;;;;;;6.85;89.65;101819.19;4786644;30;20080;-70
2021/12/14 02:55:41;;;;;;;10.68;4.88;;;;;;;6.91;89.83;101826.91;4786000;30;20108;-70
2021/12/14 02:58:47;;;;;;;16.60;4.65;;;;;;;6.88;89.81;101825.22;4787057;30;20537;-70
2021/12/14 03:01:55;;;;;;;12.38;6.30;;;;;;;6.92;89.55;101820.81;4786090;30;20062;-70
2021/12/14 03:05:21;;;;;;;11.82;4.97;;;;;;;6.80;90.39;101810.63;4796498;29;20588;-69
2021/12/14 03:08:27;;;;;;;7.97;4.93;;;;;;;6.82;90.40;101814.06;4786715;30;20054;-69
2021/12/14 03:11:32;;;;;;;7.80;4.50;;;;;;;6.79;90.15;101808.91;4786034;30;20167;-70
2021/12/14 03:14:37;;;;;;;12.98;4.97;;;;;;;6.80;90.07;101815.84;4786884;30;20053;-70
2021/12/14 03:17:43;;;;;;;11.20;5.03;;;;;;;6.65;90.42;101811.72;4786282;30;20460;-70
2021/12/14 03:20:51;;;;;;;10.55;4.53;;;;;;;6.74;90.53;101827.19;4786778;30;20100;-70
2021/12/14 03:24:00;;;;;;;8.63;4.10;;;;;;;6.83;89.76;101826.16;4786557;30;20484;-70
2021/12/14 03:27:04;;;;;;;12.80;5.50;;;;;;;6.75;90.32;101808.94;4797038;29;20053;-70
2021/12/14 03:30:23;;;;;;;13.68;5.07;;;;;;;6.81;90.31;101809.75;4803753;29;20116;-70
2021/12/14 03:33:35;;;;;;;12.93;4.57;;;;;;;6.68;90.23;101809.94;4804906;29;20065;-70
2021/12/14 03:36:46;;;;;;;13.05;4.32;;;;;;;6.77;89.95;101816.75;4804128;29;20089;-70
2021/12/14 03:39:57;;;;;;;18.83;5.40;;;;;;;6.82;89.67;101803.66;4807407;29;20053;-70
2021/12/14 03:43:01;;;;;;;5.93;3.83;;;;;;;6.81;89.70;101797.59;4807659;29;20057;-70
2021/12/14 03:46:06;;;;;;;;;;;;;;;6.86;89.92;101794.91;4807910;29;20141;-69
2021/12/14 03:49:10;;;;;;;9.98;4.30;;;;;;;6.89;89.37;101785.34;4807584;29;19999;-70
2021/12/14 03:52:19;;;;;;;15.27;5.05;;;;;;;6.73;90.12;101781.25;4806989;29;20092;-70
2021/12/14 03:55:34;;;;;;;8.43;4.05;;;;;;;6.66;90.33;101771.84;4789241;30;20116;-70
2021/12/14 03:58:39;;;;;;;;;;;;;;;6.69;90.23;101746.66;4789270;29;20083;-70
2021/12/14 04:01:48;;;;;;;10.93;4.75;;;;;;;6.72;90.27;101745.75;4802797;29;19928;-69
2021/12/14 04:05:01;;;;;;;13.90;5.63;;;;;;;6.60;90.36;101739.00;4785243;29;20104;-70
2021/12/14 04:08:06;;;;;;;7.68;3.47;;;;;;;6.70;90.35;101717.22;4784214;29;20131;-70
2021/12/14 04:11:12;;;;;;;7.57;4.75;;;;;;;6.72;89.93;101724.97;4795293;29;20101;-70
2021/12/14 04:14:16;;;;;;;11.73;4.80;;;;;;;6.63;90.10;101723.38;4792256;29;20421;-69
2021/12/14 04:17:24;;;;;;;14.15;4.28;;;;;;;6.67;90.34;101726.81;4802642;29;20065;-70
2021/12/14 04:20:32;;;;;;;14.82;6.15;;;;;;;6.64;90.43;101722.50;4804740;29;20144;-70
2021/12/14 04:23:40;;;;;;;11.00;6.45;;;;;;;6.73;90.14;101724.94;4806955;29;20058;-70
2021/12/14 04:26:45;;;;;;;11.35;6.72;;;;;;;6.82;89.53;101710.91;4806760;29;20123;-70
2021/12/14 04:29:53;;;;;;;18.25;6.80;;;;;;;6.40;91.58;101717.69;4806753;29;20084;-70
2021/12/14 04:33:02;;;;;;;12.90;5.15;;;;;;;6.58;90.86;101712.22;4806684;29;20065;-70
2021/12/14 04:36:10;;;;;;;10.05;4.63;;;;;;;6.50;90.91;101704.53;4806405;29;20441;-70
2021/12/14 04:52:55;;;;;;;11.88;4.78;;;;;;;6.56;90.94;101694.91;4798605;29;20131;-70
2021/12/14 04:55:58;;;;;;;11.10;4.78;;;;;;;6.58;90.80;101696.63;4799162;29;20422;-69
2021/12/14 04:59:11;;;;;;;11.95;4.70;;;;;;;6.73;90.53;101695.47;4807098;29;20115;-70
2021/12/14 05:02:19;;;;;;;16.70;7.22;;;;;;;6.79;90.16;101687.56;4813548;29;20129;-70
2021/12/14 05:05:45;;;;;;;19.25;10.82;;;;;;;6.72;90.00;101699.81;4813562;29;20111;-70
2021/12/14 05:09:21;;;;;;;10.82;6.78;;;;;;;6.76;90.23;101703.22;4812688;29;20088;-70
2021/12/14 05:12:31;;;;;;;11.07;7.47;;;;;;;6.66;90.35;101710.31;4812695;29;20126;-70
2021/12/14 05:15:55;;;;;;;9.45;4.63;;;;;;;6.58;90.74;101696.63;4823643;29;20147;-70
2021/12/14 05:19:03;;;;;;;19.08;6.60;;;;;;;6.67;90.61;101719.00;4808444;29;20167;-71
2021/12/14 05:22:15;;;;;;;19.73;10.02;;;;;;;6.63;90.52;101720.75;4809109;29;20062;-70
2021/12/14 05:25:27;;;;;;;23.75;15.98;;;;;;;6.72;90.49;101732.75;4808716;29;20069;-69
2021/12/14 05:28:42;;;;;;;15.13;8.20;;;;;;;6.70;90.65;101730.19;4807869;29;20134;-69
2021/12/14 05:31:53;;;;;;;18.50;7.53;;;;;;;6.78;90.46;101735.25;4808800;29;20130;-70
2021/12/14 05:35:00;;;;;;;14.10;7.35;;;;;;;6.76;90.07;101742.22;4808056;29;20106;-69
2021/12/14 05:38:09;;;;;;;12.35;6.15;;;;;;;6.75;89.90;101772.56;4808732;29;20134;-70
2021/12/14 05:44:45;;;;;;;13.40;7.32;;;;;;;6.71;90.19;101780.44;4819014;29;20417;-69
2021/12/14 05:47:55;;;;;;;11.80;5.82;;;;;;;6.66;90.41;101777.03;4809144;29;20074;-70
2021/12/14 05:51:12;;;;;;;10.32;5.50;;;;;;;6.70;90.70;101753.59;4797032;29;20105;-70
2021/12/14 05:54:30;;;;;;;26.67;14.68;;;;;;;6.71;90.07;101750.09;4801269;29;20118;-70
2021/12/14 05:57:34;;;;;;;15.57;9.20;;;;;;;6.40;91.45;101748.88;4799669;29;20080;-70
2021/12/14 06:00:45;;;;;;;13.80;4.88;;;;;;;6.48;91.24;101752.22;4825309;29;20424;-70
2021/12/14 06:04:00;;;;;;;11.38;4.90;;;;;;;6.58;91.08;101755.53;4826051;29;20053;-70
2021/12/14 06:07:05;;;;;;;9.07;4.20;;;;;;;6.61;90.86;101752.88;4826428;29;20138;-70
2021/12/14 06:10:10;;;;;;;11.43;5.22;;;;;;;6.43;91.44;101765.28;4826294;29;20608;-71
2021/12/14 06:13:18;;;;;;;13.80;7.03;;;;;;;6.61;90.95;101764.13;4825186;29;20057;-70
2021/12/14 06:16:31;;;;;;;11.88;7.85;;;;;;;6.75;90.76;101775.16;4818745;29;20067;-70
2021/12/14 06:19:42;;;;;;;14.07;7.30;;;;;;;6.60;90.85;101769.34;4799322;29;20119;-70
2021/12/14 06:22:52;;;;;;;16.23;6.30;;;;;;;6.71;90.59;101777.84;4800827;29;20054;-69
2021/12/14 06:26:15;;;;;;;11.40;9.10;;;;;;;6.81;90.20;101786.34;4805889;29;20421;-70
2021/12/14 06:29:24;;;;;;;12.95;6.43;;;;;;;6.89;89.91;101794.84;4807702;29;20372;-70
2021/12/14 06:32:41;;;;;;;10.48;5.38;;;;;;;6.72;90.40;101776.94;4807924;29;20577;-72
2021/12/14 06:35:49;;;;;;;12.60;4.55;;;;;;;6.82;90.25;101782.84;4807617;29;20113;-69
2021/12/14 06:39:03;;;;;;;10.82;5.63;;;;;;;6.84;90.02;101797.56;4806516;29;20075;-69
2021/12/14 06:42:07;;;;;;;10.60;5.13;;;;;;;6.83;90.08;101784.56;4824367;29;20288;-69
2021/12/14 06:45:19;;;;;;;9.38;4.20;;;;;;;6.81;89.83;101776.81;4825927;29;20106;-69
2021/12/14 06:48:38;;;;;;;11.75;5.47;;;;;;;6.88;89.37;101783.59;4825683;29;20052;-69
2021/12/14 06:51:48;;;;;;;14.52;6.68;;;;;;;6.65;90.88;101790.94;4837453;29;20081;-70
2021/12/14 06:55:00;;;;;;;16.70;8.70;;;;;;;6.73;90.58;101774.34;4819542;29;20132;-69
2021/12/14 06:58:45;;;;;;;12.65;8.80;;;;;;;6.67;90.68;101778.78;4817278;29;20075;-70
2021/12/14 07:01:51;;;;;;;17.17;8.50;;;;;;;6.78;90.50;101781.19;4796080;29;20064;-69
2021/12/14 07:04:54;;;;;;;19.80;6.82;;;;;;;6.61;90.99;101779.72;4806795;29;20356;-69
2021/12/14 07:08:07;;;;;;;13.18;6.25;;;;;;;6.68;91.04;101780.50;4806183;29;20065;-69
2021/12/14 07:11:24;;;;;;;24.73;8.20;;;;;;;6.61;90.79;101774.53;4806335;29;20042;-69
2021/12/14 07:14:27;;;;;;;17.17;5.63;;;;;;;6.73;90.70;101782.13;4819725;29;20597;-69
2021/12/14 07:17:41;;;;;;;13.07;5.85;;;;;;;6.82;90.23;101782.84;4818041;29;20094;-69
2021/12/14 07:20:50;;;;;;;12.80;8.00;;;;;;;6.83;90.15;101781.97;4819089;29;20106;-69
2021/12/14 07:23:53;;;;;;;17.25;8.80;;;;;;;6.79;90.16;101777.69;4818885;29;20280;-69
2021/12/14 07:27:12;;;;;;;;;;;;;;;6.81;91.27;101773.34;4818930;29;20085;-70
2021/12/14 07:30:21;;;;;;;17.75;7.50;;;;;;;6.85;90.58;101777.59;4819062;29;20363;-69
2021/12/14 07:33:28;;;;;;;11.00;6.60;;;;;;;6.90;90.22;101781.84;4818824;29;20110;-69
2021/12/14 07:36:37;;;;;;;15.20;6.07;;;;;;;7.01;90.32;101771.25;4819165;29;20115;-69
2021/12/14 07:39:40;;;;;;;14.45;5.90;;;;;;;7.08;89.64;101774.59;4818730;29;20052;-69
2021/12/14 07:42:44;;;;;;;9.70;4.97;;;;;;;6.89;90.32;101781.84;4816197;29;20768;-69
2021/12/14 07:45:50;;;;;;;;;;;;;;;6.95;89.67;101782.59;4817847;29;20065;-70
2021/12/14 07:49:01;;;;;;;14.40;5.03;;;;;;;7.00;89.53;101782.56;4817634;29;20004;-70
2021/12/14 07:52:07;;;;;;;11.25;6.20;;;;;;;6.98;90.08;101786.91;4821332;29;20076;-70
2021/12/14 07:55:18;;;;;;;13.43;5.60;;;;;;;7.04;89.72;101788.56;4835420;29;20102;-69
2021/12/14 07:58:39;;;;;;;9.80;5.30;;;;;;;6.93;89.57;101796.53;4836752;29;20060;-70
2021/12/14 08:01:44;;;;;;;10.50;5.97;;;;;;;6.70;91.04;101802.97;4839685;29;20460;-70
2021/12/14 08:04:51;;;;;;;7.40;4.20;;;;;;;6.85;90.60;101798.41;4838719;29;20092;-69
2021/12/14 08:08:02;;;;;;;9.02;5.60;;;;;;;6.96;89.86;101794.75;4841094;29;20049;-69
2021/12/14 08:14:31;;;;;;;14.63;6.05;;;;;;;7.02;89.80;101793.78;4840736;29;20424;-70
2021/12/14 08:17:36;;;;;;;;;;;;;;;6.93;90.15;101812.16;4841212;29;20520;-70
2021/12/14 08:21:02;;;;;;;9.02;5.32;;;;;;;6.88;90.27;101825.22;4840637;29;19984;-70
2021/12/14 08:24:07;;;;;;;12.88;4.93;;;;;;;6.92;90.42;101831.22;4843064;29;20057;-70
2021/12/14 08:27:10;;;;;;;8.90;5.15;;;;;;;7.01;90.20;101835.41;4843994;29;20053;-69
2021/12/14 08:30:15;;;;;;;8.63;5.55;;;;;;;7.07;89.62;101838.78;4821385;29;20057;-69
2021/12/14 08:33:22;;;;;;;9.07;5.20;;;;;;;7.11;89.57;101837.81;4811671;29;20560;-69
2021/12/14 08:36:48;;;;;;;17.85;10.18;;;;;;;7.10;89.58;101835.25;4820753;29;20053;-69
2021/12/14 08:39:58;;;;;;;20.33;9.60;;;;;;;7.05;90.27;101843.16;4819734;29;20114;-69
2021/12/14 08:43:13;;;;;;;14.10;7.72;;;;;;;6.90;90.89;101848.59;4820118;29;20536;-69
2021/12/14 08:46:26;;;;;;;10.35;6.03;;;;;;;6.88;91.41;101842.56;4820481;29;20052;-70
2021/12/14 08:49:29;;;;;;;12.60;6.03;;;;;;;6.96;90.68;101854.56;4819723;29;20050;-69
2021/12/14 08:52:33;;;;;;;;;;;;;;;7.05;90.56;101847.47;4820062;29;20103;-70
2021/12/14 08:55:42;;;;;;;11.73;5.70;;;;;;;7.05;90.08;101855.28;4820673;29;20291;-69
2021/12/14 08:58:47;;;;;;;11.00;5.60;;;;;;;7.13;89.91;101867.28;4820328;29;20211;-70
2021/12/14 09:01:52;;;;;;;11.77;5.75;;;;;;;7.25;89.36;101865.38;4820747;29;20079;-69
2021/12/14 09:05:05;;;;;;;11.45;6.00;;;;;;;7.22;89.42;101876.69;4821236;29;20159;-69
2021/12/14 09:08:10;;;;;;;9.40;5.72;;;;;;;7.14;90.04;101873.34;4820004;29;20057;-69
2021/12/14 09:11:17;;;;;;;13.50;6.68;;;;;;;7.14;90.29;101868.97;4823222;29;20412;-69
2021/12/14 09:14:20;;;;;;;13.20;6.32;;;;;;;7.23;89.64;101868.84;4823522;29;20057;-69
2021/12/14 09:17:23;;;;;;;10.70;6.18;;;;;;;7.16;89.72;101872.44;4824496;29;20120;-69
2021/12/14 09:20:43;;;;;;;10.10;5.40;;;;;;;7.14;90.15;101873.34;4824355;29;20057;-69
2021/12/14 09:23:51;;;;;;;9.35;5.95;;;;;;;7.19;90.32;101877.59;4822773;29;20061;-69
2021/12/14 09:26:59;;;;;;;10.43;6.65;;;;;;;7.19;90.06;101867.19;4822434;29;20054;-69
2021/12/14 09:30:05;;;;;;;14.63;6.22;;;;;;;7.21;90.16;101870.63;4822875;29;20057;-69
2021/12/14 09:33:10;;;;;;;9.30;6.82;;;;;;;7.26;90.06;101882.69;4822458;29;20577;-69
2021/12/14 09:36:14;;;;;;;12.48;7.18;;;;;;;7.23;90.23;101871.44;4822252;29;20057;-69
2021/12/14 09:39:22;;;;;;;13.10;7.10;;;;;;;7.25;90.59;101886.19;4824528;29;20437;-69
2021/12/14 09:42:32;;;;;;;14.88;6.93;;;;;;;7.11;90.75;101895.03;4824344;29;20433;-69
2021/12/14 09:45:43;;;;;;;14.48;8.40;;;;;;;7.15;90.61;101894.13;4824304;29;20073;-69
2021/12/14 09:48:50;;;;;;;14.55;9.63;;;;;;;7.23;90.32;101894.84;4824225;29;20053;-69
2021/12/14 09:51:59;;;;;;;9.25;7.30;;;;;;;7.24;90.43;101893.09;4824039;29;20049;-69
2021/12/14 09:55:08;;;;;;;11.65;7.45;;;;;;;7.20;90.72;101884.50;4823991;29;20089;-69
2021/12/14 09:58:19;;;;;;;13.00;7.93;;;;;;;7.31;90.18;101870.47;4824325;29;20221;-69
2021/12/14 10:01:27;;;;;;;11.90;9.00;;;;;;;7.38;89.96;101874.69;4823732;29;20122;-69
2021/12/14 10:04:43;;;;;;;17.00;10.00;;;;;;;7.44;89.73;101866.78;4824085;29;20584;-68
2021/12/14 10:07:48;;;;;;;12.15;8.75;;;;;;;7.35;90.40;101872.97;4819458;29;20615;-69
2021/12/14 10:11:03;;;;;;;12.48;8.35;;;;;;;7.49;89.67;101874.47;4820059;29;20046;-69
2021/12/14 10:14:08;;;;;;;11.35;8.77;;;;;;;7.34;90.66;101886.88;4819630;29;20073;-70
2021/12/14 10:17:15;;;;;;;16.63;11.88;;;;;;;7.36;90.52;101889.44;4831511;29;20139;-69
2021/12/14 10:20:28;;;;;;;13.52;10.85;;;;;;;7.39;90.59;101876.38;4827265;29;20122;-69
2021/12/14 10:23:34;;;;;;;27.02;13.90;;;;;;;7.48;90.21;101877.97;4837178;29;20053;-69
2021/12/14 10:26:42;;;;;;;23.10;13.20;;;;;;;7.57;89.83;101877.81;4837901;29;20129;-69
2021/12/14 10:29:47;;;;;;;25.95;18.30;;;;;;;7.71;89.45;101881.00;4838419;29;20057;-69
2021/12/14 10:32:51;;;;;;;42.33;26.10;;;;;;;7.57;90.14;101876.06;4837838;29;20102;-69
2021/12/14 10:36:02;;;;;;;36.95;25.50;;;;;;;7.64;89.86;101880.25;4837399;29;20053;-69
2021/12/14 10:45:41;;;;;;;27.77;20.00;;;;;;;7.53;90.88;101881.34;4835688;29;20515;-70
2021/12/14 10:48:46;;;;;;;29.13;17.45;;;;;;;7.62;88.67;101881.16;4837511;29;20435;-69
2021/12/14 10:51:58;;;;;;;29.80;18.08;;;;;;;7.73;88.14;101886.19;4837983;29;20053;-69
2021/12/14 10:55:09;;;;;;;24.30;13.82;;;;;;;7.65;87.72;101881.97;4837499;29;20114;-69
2021/12/14 10:58:15;;;;;;;17.15;12.25;;;;;;;7.70;87.74;101889.72;4837466;29;20135;-69
2021/12/14 11:01:26;;;;;;;23.60;14.63;;;;;;;7.78;87.55;101879.16;4800358;29;20065;-69
2021/12/14 11:04:55;;;;;;;22.85;14.82;;;;;;;7.77;88.21;101880.91;4800462;29;20106;-69
2021/12/14 11:07:59;;;;;;;21.42;13.57;;;;;;;7.84;87.53;101881.63;4800474;29;20129;-69
2021/12/14 11:11:07;;;;;;;13.90;10.63;;;;;;;7.75;86.89;101871.38;4800548;29;20062;-69
2021/12/14 11:14:15;;;;;;;13.20;10.57;;;;;;;7.83;86.99;101872.13;4816170;29;20110;-69
2021/12/14 11:20:50;;;;;;;18.20;9.80;;;;;;;7.90;88.26;101868.50;4837086;29;20412;-69
2021/12/14 11:24:01;;;;;;;10.85;5.53;;;;;;;7.84;83.88;101856.44;4836942;29;20056;-69
2021/12/14 11:27:17;;;;;;;9.88;5.95;;;;;;;8.05;83.46;101869.94;4825222;29;20106;-69
2021/12/14 11:30:26;;;;;;;18.67;14.20;;;;;;;8.03;84.05;101872.56;4836083;29;20528;-69
2021/12/14 11:33:45;;;;;;;25.17;16.08;;;;;;;7.83;84.21;101874.72;4836735;29;20044;-70
2021/12/14 11:37:03;;;;;;;18.88;11.00;;;;;;;7.61;82.66;101872.50;4836386;29;20187;-70
2021/12/14 11:40:11;;;;;;;15.82;12.40;;;;;;;7.69;83.10;101868.03;4837201;29;20430;-69
2021/12/14 11:43:21;;;;;;;7.72;6.57;;;;;;;7.54;80.78;101867.47;4836317;29;20049;-70
2021/12/14 11:46:25;;;;;;;9.90;6.70;;;;;;;7.63;81.02;101855.13;4837480;29;20044;-70
2021/12/14 11:50:00;;;;;;;13.45;7.63;;;;;;;7.64;81.19;101854.22;4836878;29;20056;-70
2021/12/14 11:53:18;;;;;;;5.63;3.05;;;;;;;7.66;79.77;101851.63;4810650;29;20096;-70
2021/12/14 11:56:26;;;;;;;4.47;2.95;;;;;;;7.87;80.41;101853.78;4803086;29;20552;-70
2021/12/14 11:59:30;;;;;;;8.50;4.75;;;;;;;8.01;79.98;101853.53;4806801;29;20078;-70
2021/12/14 12:02:33;;;;;;;8.55;4.70;;;;;;;8.00;80.30;101846.59;4823550;29;20118;-70
2021/12/14 12:05:36;;;;;;;6.95;3.50;;;;;;;8.04;80.38;101848.25;4825104;29;20056;-70
2021/12/14 12:12:27;;;;;;;7.50;3.10;;;;;;;8.16;81.10;101841.91;4807544;29;20081;-69
2021/12/14 12:15:30;;;;;;;3.95;2.78;;;;;;;8.14;82.01;101843.72;4807638;29;20050;-70
2021/12/14 12:18:33;;;;;;;4.53;2.55;;;;;;;8.23;81.69;101838.31;4805244;29;20069;-70
2021/12/14 12:21:38;;;;;;;4.93;2.20;;;;;;;8.20;81.61;101838.38;4806863;29;20054;-70
2021/12/14 12:24:49;;;;;;;4.45;3.08;;;;;;;8.04;80.38;101837.84;4807660;29;20112;-70
2021/12/14 12:28:02;;;;;;;5.38;3.65;;;;;;;8.00;79.94;101824.88;4807481;29;20115;-70
2021/12/14 12:31:20;;;;;;;5.55;4.13;;;;;;;8.02;79.85;101841.34;4806983;29;20115;-70
2021/12/14 12:34:34;;;;;;;96.70;14.73;;;;;;;8.05;77.99;101841.28;4807199;29;20049;-70
2021/12/14 12:37:44;;;;;;;35.55;7.97;;;;;;;8.07;78.07;101842.97;4807652;29;20061;-70
2021/12/14 12:41:13;;;;;;;5.93;3.53;;;;;;;8.04;77.50;101847.38;4807355;29;20114;-70
2021/12/14 12:44:21;;;;;;;4.35;3.40;;;;;;;8.05;79.37;101844.75;4807450;29;20466;-70
2021/12/14 12:47:24;;;;;;;6.55;4.57;;;;;;;8.13;80.15;101836.75;4807184;29;20089;-70
2021/12/14 12:50:29;;;;;;;6.25;4.90;;;;;;;8.13;80.59;101841.97;4807018;29;20111;-70
2021/12/14 12:53:33;;;;;;;7.25;5.18;;;;;;;8.23;81.10;101853.06;4807234;29;20053;-70
2021/12/14 12:56:38;;;;;;;;;;;;;;;8.19;80.06;101835.78;4807590;29;20083;-70
2021/12/14 12:59:54;;;;;;;5.60;3.85;;;;;;;7.83;79.03;101827.84;4806832;29;19944;-70
2021/12/14 13:03:15;;;;;;;40.13;7.80;;;;;;;7.89;79.44;101843.34;4807048;29;20058;-69
2021/12/14 13:06:21;;;;;;;23.35;5.35;;;;;;;7.82;77.95;101846.97;4806945;29;20054;-69
2021/12/14 13:09:25;;;;;;;21.10;9.18;;;;;;;7.89;79.58;101848.56;4806529;29;20107;-70
2021/12/14 13:12:52;;;;;;;9.27;6.75;;;;;;;7.86;80.65;101859.03;4806675;29;20103;-70
2021/12/14 13:16:00;;;;;;;7.00;5.38;;;;;;;7.69;78.63;101852.41;4804753;29;20108;-70
2021/12/14 13:19:13;;;;;;;5.85;4.05;;;;;;;7.77;77.55;101844.44;4806443;29;20050;-70
2021/12/14 13:22:17;;;;;;;7.28;5.40;;;;;;;7.83;76.48;101856.50;4806379;29;20069;-70
2021/12/14 13:25:36;;;;;;;8.23;5.80;;;;;;;7.90;77.15;101847.66;4806777;29;20050;-70
2021/12/14 13:28:40;;;;;;;7.10;5.60;;;;;;;8.00;79.45;101851.78;4806686;29;20111;-70
2021/12/14 13:31:43;;;;;;;;;;;;;;;7.99;80.77;101850.09;4806721;29;20041;-70
2021/12/14 13:34:53;;;;;;;6.03;4.20;;;;;;;7.99;80.36;101850.09;4808130;29;20004;-70
2021/12/14 13:38:05;;;;;;;8.73;5.07;;;;;;;8.08;80.66;101846.44;4822565;29;20516;-70
2021/12/14 13:41:23;;;;;;;8.15;5.22;;;;;;;7.98;80.90;101848.38;4824147;29;20126;-70
2021/12/14 13:44:32;;;;;;;11.25;5.03;;;;;;;8.05;81.48;101865.59;4823526;29;20145;-70
2021/12/14 13:47:36;;;;;;;6.50;4.82;;;;;;;8.01;81.82;101863.94;4823313;29;20098;-70
2021/12/14 13:50:45;;;;;;;5.45;3.45;;;;;;;8.01;81.77;101863.06;4823698;29;20048;-70
2021/12/14 13:53:50;;;;;;;9.15;4.43;;;;;;;7.97;82.62;101862.28;4823682;29;20126;-70
2021/12/14 13:56:53;;;;;;;9.65;4.63;;;;;;;7.93;83.63;101865.84;4823750;29;20512;-70
2021/12/14 13:59:57;;;;;;;10.07;4.32;;;;;;;7.97;83.34;101866.63;4823482;29;20118;-70
2021/12/14 14:03:00;;;;;;;8.15;4.40;;;;;;;8.02;83.04;101873.47;4823493;29;20058;-70
2021/12/14 14:06:08;;;;;;;12.80;5.20;;;;;;;8.11;82.68;101885.47;4823991;29;20111;-70
2021/12/14 14:09:17;;;;;;;7.45;4.38;;;;;;;7.98;83.07;101884.00;4823744;29;20512;-70
2021/12/14 14:12:23;;;;;;;10.23;3.95;;;;;;;8.01;83.65;101882.19;4824097;29;20476;-70
2021/12/14 14:15:32;;;;;;;6.47;3.67;;;;;;;8.03;83.51;101888.19;4823448;29;20512;-70
2021/12/14 14:18:43;;;;;;;4.30;3.03;;;;;;;7.97;82.91;101893.53;4823707;29;20125;-69
2021/12/14 14:21:55;;;;;;;6.18;3.53;;;;;;;8.02;82.45;101902.13;4820060;29;20548;-70
2021/12/14 14:25:07;;;;;;;6.22;3.65;;;;;;;7.96;83.46;101904.00;4823105;29;20107;-69
2021/12/14 14:28:27;;;;;;;8.38;3.58;;;;;;;7.90;84.12;101897.16;4823720;29;20175;-69
2021/12/14 14:31:30;;;;;;;6.35;4.30;;;;;;;7.98;nan;101905.69;4822610;29;20520;-69
2021/12/14 14:34:45;;;;;;;6.63;3.30;;;;;;;7.98;83.58;101905.69;4823900;29;20064;-70
2021/12/14 14:37:49;;;;;;;7.25;4.60;;;;;;;7.87;83.80;101907.63;4823617;29;20057;-70
2021/12/14 14:40:56;;;;;;;;;;;;;;;7.73;83.91;101917.44;4823350;29;20456;-70
2021/12/14 14:44:08;;;;;;;12.05;9.10;;;;;;;7.79;83.98;101925.16;4823588;29;20013;-70
2021/12/14 14:47:33;;;;;;;25.23;17.02;;;;;;;7.76;84.51;101917.38;4823356;29;20119;-69
2021/12/14 14:50:37;;;;;;;12.98;9.60;;;;;;;7.82;84.89;101917.28;4822947;29;20049;-70
2021/12/14 14:53:40;;;;;;;11.15;5.63;;;;;;;7.82;84.36;101915.53;4822275;29;20052;-69
2021/12/14 14:56:43;;;;;;;9.30;6.55;;;;;;;7.84;84.55;101912.88;4811796;29;20057;-70
2021/12/14 14:59:56;;;;;;;;;;;;;;;7.91;84.32;101909.28;4822776;29;20110;-70
2021/12/14 15:03:04;;;;;;;8.68;5.35;;;;;;;7.80;84.39;101914.69;4819456;29;20407;-69
2021/12/14 15:06:28;;;;;;;12.10;4.97;;;;;;;7.79;84.95;101920.78;4799220;29;20050;-70
2021/12/14 15:09:31;;;;;;;6.78;5.10;;;;;;;7.70;85.12;101920.97;4803820;29;20042;-70
2021/12/14 15:12:37;;;;;;;5.68;4.03;;;;;;;7.75;85.30;101924.31;4818147;29;20466;-70
2021/12/14 15:16:13;;;;;;;9.18;4.93;;;;;;;7.74;85.53;101924.38;4818162;29;20049;-70
2021/12/14 15:19:23;;;;;;;8.38;4.35;;;;;;;7.79;85.36;101930.34;4819551;29;20053;-70
2021/12/14 15:22:30;;;;;;;7.50;4.95;;;;;;;7.77;84.99;101932.13;4817979;29;20517;-70
2021/12/14 15:25:35;;;;;;;9.27;5.55;;;;;;;7.77;85.10;101927.75;4818717;29;20142;-70
2021/12/14 15:28:38;;;;;;;8.38;4.80;;;;;;;7.73;85.31;101935.66;4818384;29;20120;-69
2021/12/14 15:31:47;;;;;;;7.10;4.75;;;;;;;7.78;85.40;101934.69;4803492;29;20057;-69